Lawrence Municipal Airport Lawrence US
ICAO: KLWM
IATA: LWM
Category: Medium
Scheduled Services: No

Elevation: 148 ft
TransAlt. 18000 ft.

Airport Communications:
BOSTON APP/DEP:124.4
ASOS:126.75
ATIS:126.75
CLNC DEL:124.3
CTAF:119.25
GND:124.3
BRIDGEPORT RDO:112.5
TWR:119.25
UNICOM:122.8

KLWM Zoom In..

If you have problems with the map follow the link
https://www.worldairports.se/pages/airport.php?
ICAO=KLWM

Runways:

(A) RW 05 length 5001 ft width 150 ft
ILS 111.70 / hdg 53

(B) RW 14 length 3900 ft width 100 ft
---- / hdg 137

(C) RW 23 length 5001 ft width 150 ft
---- / hdg 233

(D) RW 32 length 3900 ft width 100 ft
---- / hdg 317

Location; KLWM
Day. 13 / Time. 21.54 Zulu
* Altimeter: 30.35
* Temperature: 03° c. 37.4°f.
* Wind from: 060° Speed 03 kn.
Dewpoint: 02° c.
Visibility: 7 Statute Miles.
Clouds: Broken 2300 ft.
Clouds: Broken 3600 ft.
Clouds: Overcast 4800 ft.

KLWM 132154Z 06003KT 7SM BKN023 BKN036 OVC048 03/02 A3035 RMK AO2 RAB15E32 SLP279 P0000 T00280017


Wind From 060°
Speed 03 kn.

 
 
jpsmedia worldairports.se 2019   terms of use